Deering, MO (63840)

11:30 PM CDT on September 18, 2014 (GMT -0500)
N0RXS WX | Change Station
CLOSE
Current Station
Personal Weather Station
Location: Kennett, MO
Elevation: 262 ft
Nearby Weather Stations

Elev 262 ft 36.22 °N, 90.05 °W | Updated 9 minutes ago

Mostly Cloudy
Mostly Cloudy
63.5 °F
Feels Like 63.5 °F
N
0.0
Wind Variable Wind from East

Today
High -- | Low -- °F
--% Chance of Precip.
Yesterday
High -- | Low -- °F
Precip. -- in
6:44 AM 7:02 PM
Waning Crescent, 22% visible
Pressure 30.01 in
Visibility 8.0 miles
Clouds Mostly Cloudy 4600 ft
Overcast 6000 ft
Dew Point 63 °F
Humidity 98%
Rainfall 0.12 in
Snow Depth Not available.
UV 0 out of 12
Pollen 7.50 out of 12
Air Quality Not available.
Flu Activity Not available.
METAR KHKA 190353Z AUTO 04003KT 8SM BKN046 OVC060 19/18 A3002 RMK AO2 SLP163 T01890178

More Conditions Fewer Conditions

Pressure 30.01 in
Visibility 8.0 miles
Clouds Mostly Cloudy 4600 ft
Overcast 6000 ft
Dew Point 63 °F
Humidity 98%
Rainfall 0.12 in
Snow Depth Not available.
UV 0 out of 12
Pollen 7.50 out of 12
Air Quality Not available.
Flu Activity Not available.
METAR KHKA 190353Z AUTO 04003KT 8SM BKN046 OVC060 19/18 A3002 RMK AO2 SLP163 T01890178

More Conditions Fewer Conditions

10-Day Weather Forecast

Almanac

Astronomy

Sep. 18, 2014 Rise Set
Actual Time 6:44 AM CDT 7:02 PM CDT
Civil Twilight 6:18 AM CDT 7:27 PM CDT
Nautical Twilight 5:48 AM CDT 7:58 PM CDT
Astronomical Twilight 5:17 AM CDT 8:28 PM CDT
Moon 1:43 AM CDT (9/18) 3:47 PM CDT (9/18)
Length of Visible Light 13h 09m
Length of Day
12h 18m
Tomorrow will be 2m 17s shorter.
Waning Crescent, 22% of the Moon is Illuminated
Sep 19
Waning Crescent
Sep 24
New
Oct 1
First Quarter
Oct 8
Full
Oct 15
Last Quarter

Today's Extremes

State Highs State Lows

Community

WunderPhotos

Upload Photos

1,754,558 photos uploaded!

Nearby

Snow Depth

Station Depth Elevation
No new snow has been reported.

Earthquake Activity

City Distance Mag. Time & Date
No recent earthquake activity has been reported nearby.
Minimum magnitude displayed is 2.5.

Coastal Water Temperatures

Place Temperature
No Stations Reporting

Nearby Weather Stations